sensor_id;sensor_type;location;lat;lon;timestamp;P1;durP1;ratioP1;P2;durP2;ratioP2
46355;SDS011;32066;49.474;11.106;2023-07-29T00:01:36;5.55;;;2.90;;
46355;SDS011;32066;49.474;11.106;2023-07-29T00:04:06;5.97;;;3.10;;
46355;SDS011;32066;49.474;11.106;2023-07-29T00:06:34;5.35;;;3.05;;
46355;SDS011;32066;49.474;11.106;2023-07-29T00:09:03;4.93;;;2.85;;
46355;SDS011;32066;49.474;11.106;2023-07-29T00:11:32;5.68;;;3.20;;
46355;SDS011;32066;49.474;11.106;2023-07-29T00:14:01;6.53;;;2.80;;
46355;SDS011;32066;49.474;11.106;2023-07-29T00:16:29;4.72;;;2.88;;
46355;SDS011;32066;49.474;11.106;2023-07-29T00:19:02;4.68;;;2.83;;
46355;SDS011;32066;49.474;11.106;2023-07-29T00:21:30;4.90;;;3.20;;
46355;SDS011;32066;49.474;11.106;2023-07-29T00:23:59;6.28;;;3.42;;
46355;SDS011;32066;49.474;11.106;2023-07-29T00:26:28;6.00;;;3.13;;
46355;SDS011;32066;49.474;11.106;2023-07-29T00:28:57;4.95;;;3.17;;
46355;SDS011;32066;49.474;11.106;2023-07-29T00:31:27;4.45;;;2.97;;
46355;SDS011;32066;49.474;11.106;2023-07-29T00:33:56;5.57;;;3.17;;
46355;SDS011;32066;49.474;11.106;2023-07-29T00:36:27;5.95;;;3.53;;
46355;SDS011;32066;49.474;11.106;2023-07-29T00:38:56;6.80;;;3.35;;
46355;SDS011;32066;49.474;11.106;2023-07-29T00:41:25;5.10;;;3.03;;
46355;SDS011;32066;49.474;11.106;2023-07-29T00:43:54;8.32;;;3.40;;
46355;SDS011;32066;49.474;11.106;2023-07-29T00:46:23;5.68;;;3.35;;
46355;SDS011;32066;49.474;11.106;2023-07-29T00:48:52;4.78;;;3.00;;
46355;SDS011;32066;49.474;11.106;2023-07-29T00:51:22;6.70;;;3.65;;
46355;SDS011;32066;49.474;11.106;2023-07-29T00:53:54;6.78;;;3.50;;
46355;SDS011;32066;49.474;11.106;2023-07-29T00:56:22;5.32;;;3.60;;
46355;SDS011;32066;49.474;11.106;2023-07-29T00:58:51;6.00;;;3.40;;
46355;SDS011;32066;49.474;11.106;2023-07-29T01:01:24;5.82;;;3.25;;
46355;SDS011;32066;49.474;11.106;2023-07-29T01:03:52;7.85;;;3.50;;
46355;SDS011;32066;49.474;11.106;2023-07-29T01:06:23;6.68;;;3.55;;
46355;SDS011;32066;49.474;11.106;2023-07-29T01:09:01;5.30;;;3.53;;
46355;SDS011;32066;49.474;11.106;2023-07-29T01:11:34;6.60;;;3.45;;
46355;SDS011;32066;49.474;11.106;2023-07-29T01:14:11;5.35;;;3.20;;
46355;SDS011;32066;49.474;11.106;2023-07-29T01:16:49;5.53;;;3.42;;
46355;SDS011;32066;49.474;11.106;2023-07-29T01:19:25;5.43;;;3.20;;
46355;SDS011;32066;49.474;11.106;2023-07-29T01:22:16;8.35;;;3.63;;
46355;SDS011;32066;49.474;11.106;2023-07-29T01:24:48;5.93;;;3.38;;
46355;SDS011;32066;49.474;11.106;2023-07-29T01:27:17;6.30;;;3.78;;
46355;SDS011;32066;49.474;11.106;2023-07-29T01:29:45;9.80;;;3.63;;
46355;SDS011;32066;49.474;11.106;2023-07-29T01:32:16;5.55;;;3.58;;
46355;SDS011;32066;49.474;11.106;2023-07-29T01:34:47;5.97;;;3.45;;
46355;SDS011;32066;49.474;11.106;2023-07-29T01:37:19;6.20;;;3.42;;
46355;SDS011;32066;49.474;11.106;2023-07-29T01:39:56;5.75;;;3.58;;
46355;SDS011;32066;49.474;11.106;2023-07-29T01:42:28;5.07;;;3.42;;
46355;SDS011;32066;49.474;11.106;2023-07-29T01:44:59;6.10;;;3.40;;
46355;SDS011;32066;49.474;11.106;2023-07-29T01:47:28;5.63;;;3.40;;
46355;SDS011;32066;49.474;11.106;2023-07-29T01:49:57;6.72;;;3.42;;
46355;SDS011;32066;49.474;11.106;2023-07-29T01:52:25;5.85;;;3.60;;
46355;SDS011;32066;49.474;11.106;2023-07-29T01:54:57;7.20;;;3.53;;
46355;SDS011;32066;49.474;11.106;2023-07-29T01:57:25;6.68;;;4.03;;
46355;SDS011;32066;49.474;11.106;2023-07-29T01:59:54;8.45;;;4.03;;
46355;SDS011;32066;49.474;11.106;2023-07-29T02:02:23;7.03;;;3.63;;
46355;SDS011;32066;49.474;11.106;2023-07-29T02:04:51;5.90;;;3.60;;
46355;SDS011;32066;49.474;11.106;2023-07-29T02:07:21;6.38;;;3.58;;
46355;SDS011;32066;49.474;11.106;2023-07-29T02:09:51;6.40;;;3.80;;
46355;SDS011;32066;49.474;11.106;2023-07-29T02:12:23;7.78;;;3.70;;
46355;SDS011;32066;49.474;11.106;2023-07-29T02:14:52;5.18;;;3.65;;
46355;SDS011;32066;49.474;11.106;2023-07-29T02:17:21;5.60;;;3.67;;
46355;SDS011;32066;49.474;11.106;2023-07-29T02:19:49;6.10;;;3.58;;
46355;SDS011;32066;49.474;11.106;2023-07-29T02:22:18;8.57;;;3.75;;
46355;SDS011;32066;49.474;11.106;2023-07-29T02:24:47;9.38;;;3.60;;
46355;SDS011;32066;49.474;11.106;2023-07-29T02:27:16;7.95;;;3.95;;
46355;SDS011;32066;49.474;11.106;2023-07-29T02:29:47;5.97;;;3.72;;
46355;SDS011;32066;49.474;11.106;2023-07-29T02:32:16;5.78;;;3.67;;
46355;SDS011;32066;49.474;11.106;2023-07-29T02:34:44;6.78;;;3.70;;
46355;SDS011;32066;49.474;11.106;2023-07-29T02:37:16;8.85;;;4.10;;
46355;SDS011;32066;49.474;11.106;2023-07-29T02:39:45;6.60;;;3.53;;
46355;SDS011;32066;49.474;11.106;2023-07-29T02:42:14;6.50;;;3.72;;
46355;SDS011;32066;49.474;11.106;2023-07-29T02:44:43;7.00;;;4.03;;
46355;SDS011;32066;49.474;11.106;2023-07-29T02:47:14;5.53;;;3.47;;
46355;SDS011;32066;49.474;11.106;2023-07-29T02:49:42;5.78;;;3.97;;
46355;SDS011;32066;49.474;11.106;2023-07-29T02:52:11;7.55;;;3.95;;
46355;SDS011;32066;49.474;11.106;2023-07-29T02:54:40;6.15;;;3.70;;
46355;SDS011;32066;49.474;11.106;2023-07-29T02:57:08;6.80;;;3.67;;
46355;SDS011;32066;49.474;11.106;2023-07-29T02:59:37;6.75;;;3.83;;
46355;SDS011;32066;49.474;11.106;2023-07-29T03:02:05;6.53;;;3.70;;
46355;SDS011;32066;49.474;11.106;2023-07-29T03:04:37;6.78;;;3.85;;
46355;SDS011;32066;49.474;11.106;2023-07-29T03:07:05;5.97;;;3.58;;
46355;SDS011;32066;49.474;11.106;2023-07-29T03:09:35;10.07;;;4.13;;
46355;SDS011;32066;49.474;11.106;2023-07-29T03:12:05;5.25;;;3.42;;
46355;SDS011;32066;49.474;11.106;2023-07-29T03:14:34;5.93;;;3.72;;
46355;SDS011;32066;49.474;11.106;2023-07-29T03:17:02;6.65;;;3.83;;
46355;SDS011;32066;49.474;11.106;2023-07-29T03:19:32;7.38;;;3.90;;
46355;SDS011;32066;49.474;11.106;2023-07-29T03:22:03;6.50;;;4.28;;
46355;SDS011;32066;49.474;11.106;2023-07-29T03:24:32;6.70;;;4.28;;
46355;SDS011;32066;49.474;11.106;2023-07-29T03:27:01;12.07;;;4.60;;
46355;SDS011;32066;49.474;11.106;2023-07-29T03:29:30;6.80;;;4.03;;
46355;SDS011;32066;49.474;11.106;2023-07-29T03:31:59;6.68;;;3.95;;
46355;SDS011;32066;49.474;11.106;2023-07-29T03:34:28;10.55;;;4.63;;
46355;SDS011;32066;49.474;11.106;2023-07-29T03:36:57;7.38;;;3.78;;
46355;SDS011;32066;49.474;11.106;2023-07-29T03:39:30;6.80;;;3.65;;
46355;SDS011;32066;49.474;11.106;2023-07-29T03:41:59;6.80;;;4.10;;
46355;SDS011;32066;49.474;11.106;2023-07-29T03:44:28;6.82;;;4.05;;
46355;SDS011;32066;49.474;11.106;2023-07-29T03:46:56;7.05;;;4.25;;
46355;SDS011;32066;49.474;11.106;2023-07-29T03:49:25;7.13;;;3.97;;
46355;SDS011;32066;49.474;11.106;2023-07-29T03:51:54;6.82;;;3.92;;
46355;SDS011;32066;49.474;11.106;2023-07-29T03:54:22;6.28;;;3.80;;
46355;SDS011;32066;49.474;11.106;2023-07-29T03:56:54;7.32;;;4.07;;
46355;SDS011;32066;49.474;11.106;2023-07-29T03:59:22;9.10;;;4.60;;
46355;SDS011;32066;49.474;11.106;2023-07-29T04:01:51;7.18;;;4.50;;
46355;SDS011;32066;49.474;11.106;2023-07-29T04:04:20;7.97;;;4.22;;
46355;SDS011;32066;49.474;11.106;2023-07-29T04:06:48;7.30;;;4.25;;
46355;SDS011;32066;49.474;11.106;2023-07-29T04:09:17;6.55;;;4.00;;
46355;SDS011;32066;49.474;11.106;2023-07-29T04:11:46;5.85;;;3.85;;
46355;SDS011;32066;49.474;11.106;2023-07-29T04:14:17;6.15;;;3.85;;
46355;SDS011;32066;49.474;11.106;2023-07-29T04:16:46;6.88;;;3.80;;
46355;SDS011;32066;49.474;11.106;2023-07-29T04:19:14;9.45;;;4.22;;
46355;SDS011;32066;49.474;11.106;2023-07-29T04:21:43;6.50;;;3.80;;
46355;SDS011;32066;49.474;11.106;2023-07-29T04:24:12;7.03;;;4.00;;
46355;SDS011;32066;49.474;11.106;2023-07-29T04:26:41;6.72;;;3.75;;
46355;SDS011;32066;49.474;11.106;2023-07-29T04:29:09;5.38;;;3.53;;
46355;SDS011;32066;49.474;11.106;2023-07-29T04:31:41;5.65;;;3.75;;
46355;SDS011;32066;49.474;11.106;2023-07-29T04:34:09;7.00;;;3.65;;
46355;SDS011;32066;49.474;11.106;2023-07-29T04:36:38;7.53;;;3.65;;
46355;SDS011;32066;49.474;11.106;2023-07-29T04:39:07;5.90;;;3.40;;
46355;SDS011;32066;49.474;11.106;2023-07-29T04:41:35;6.65;;;3.22;;
46355;SDS011;32066;49.474;11.106;2023-07-29T04:44:04;6.97;;;3.47;;
46355;SDS011;32066;49.474;11.106;2023-07-29T04:46:33;6.07;;;3.38;;
46355;SDS011;32066;49.474;11.106;2023-07-29T04:49:04;7.63;;;3.40;;
46355;SDS011;32066;49.474;11.106;2023-07-29T04:51:33;5.82;;;3.15;;
46355;SDS011;32066;49.474;11.106;2023-07-29T04:54:02;6.18;;;3.30;;
46355;SDS011;32066;49.474;11.106;2023-07-29T04:56:31;5.05;;;2.90;;
46355;SDS011;32066;49.474;11.106;2023-07-29T04:58:59;5.53;;;2.92;;
46355;SDS011;32066;49.474;11.106;2023-07-29T05:01:28;4.50;;;2.80;;
46355;SDS011;32066;49.474;11.106;2023-07-29T05:03:56;6.78;;;3.25;;
46355;SDS011;32066;49.474;11.106;2023-07-29T05:06:28;5.25;;;3.20;;
46355;SDS011;32066;49.474;11.106;2023-07-29T05:08:56;5.78;;;3.15;;
46355;SDS011;32066;49.474;11.106;2023-07-29T05:11:25;5.32;;;2.83;;
46355;SDS011;32066;49.474;11.106;2023-07-29T05:13:54;6.05;;;2.80;;
46355;SDS011;32066;49.474;11.106;2023-07-29T05:16:23;5.50;;;3.28;;
46355;SDS011;32066;49.474;11.106;2023-07-29T05:18:51;6.25;;;2.90;;
46355;SDS011;32066;49.474;11.106;2023-07-29T05:21:20;4.93;;;2.85;;
46355;SDS011;32066;49.474;11.106;2023-07-29T05:23:51;5.35;;;3.03;;
46355;SDS011;32066;49.474;11.106;2023-07-29T05:26:20;6.35;;;3.03;;
46355;SDS011;32066;49.474;11.106;2023-07-29T05:28:49;5.03;;;2.72;;
46355;SDS011;32066;49.474;11.106;2023-07-29T05:31:18;6.93;;;2.53;;
46355;SDS011;32066;49.474;11.106;2023-07-29T05:33:46;4.93;;;2.65;;
46355;SDS011;32066;49.474;11.106;2023-07-29T05:36:15;4.72;;;2.40;;
46355;SDS011;32066;49.474;11.106;2023-07-29T05:38:44;6.13;;;2.53;;
46355;SDS011;32066;49.474;11.106;2023-07-29T05:41:15;7.00;;;2.63;;
46355;SDS011;32066;49.474;11.106;2023-07-29T05:43:44;5.15;;;2.70;;
46355;SDS011;32066;49.474;11.106;2023-07-29T05:46:12;5.50;;;2.75;;
46355;SDS011;32066;49.474;11.106;2023-07-29T05:48:41;4.13;;;2.30;;
46355;SDS011;32066;49.474;11.106;2023-07-29T05:51:10;4.03;;;2.35;;
46355;SDS011;32066;49.474;11.106;2023-07-29T05:53:39;4.50;;;2.20;;
46355;SDS011;32066;49.474;11.106;2023-07-29T05:56:08;6.65;;;2.50;;
46355;SDS011;32066;49.474;11.106;2023-07-29T05:58:39;4.15;;;2.30;;
46355;SDS011;32066;49.474;11.106;2023-07-29T06:01:07;6.35;;;3.10;;
46355;SDS011;32066;49.474;11.106;2023-07-29T06:03:36;6.15;;;2.63;;
46355;SDS011;32066;49.474;11.106;2023-07-29T06:06:05;4.70;;;2.45;;
46355;SDS011;32066;49.474;11.106;2023-07-29T06:08:33;4.32;;;2.30;;
46355;SDS011;32066;49.474;11.106;2023-07-29T06:11:02;7.90;;;2.53;;
46355;SDS011;32066;49.474;11.106;2023-07-29T06:13:31;6.40;;;2.65;;
46355;SDS011;32066;49.474;11.106;2023-07-29T06:16:02;5.55;;;2.53;;
46355;SDS011;32066;49.474;11.106;2023-07-29T06:18:31;5.18;;;2.47;;
46355;SDS011;32066;49.474;11.106;2023-07-29T06:21:00;5.68;;;2.40;;
46355;SDS011;32066;49.474;11.106;2023-07-29T06:23:32;8.00;;;2.88;;
46355;SDS011;32066;49.474;11.106;2023-07-29T06:26:10;5.40;;;2.52;;
46355;SDS011;32066;49.474;11.106;2023-07-29T06:28:58;7.00;;;3.10;;
46355;SDS011;32066;49.474;11.106;2023-07-29T06:31:37;7.52;;;2.32;;
46355;SDS011;32066;49.474;11.106;2023-07-29T06:34:05;7.90;;;2.53;;
46355;SDS011;32066;49.474;11.106;2023-07-29T06:36:34;5.60;;;2.70;;
46355;SDS011;32066;49.474;11.106;2023-07-29T06:39:03;5.65;;;3.10;;
46355;SDS011;32066;49.474;11.106;2023-07-29T06:41:31;4.93;;;2.80;;
46355;SDS011;32066;49.474;11.106;2023-07-29T06:44:03;5.03;;;2.85;;
46355;SDS011;32066;49.474;11.106;2023-07-29T06:46:32;5.82;;;3.10;;
46355;SDS011;32066;49.474;11.106;2023-07-29T06:49:03;9.10;;;2.95;;
46355;SDS011;32066;49.474;11.106;2023-07-29T06:51:33;8.27;;;3.47;;
46355;SDS011;32066;49.474;11.106;2023-07-29T06:54:01;8.05;;;3.78;;
46355;SDS011;32066;49.474;11.106;2023-07-29T06:56:30;7.55;;;3.03;;
46355;SDS011;32066;49.474;11.106;2023-07-29T06:58:59;12.60;;;3.13;;
46355;SDS011;32066;49.474;11.106;2023-07-29T07:01:28;6.55;;;3.30;;
46355;SDS011;32066;49.474;11.106;2023-07-29T07:03:56;5.63;;;2.83;;
46355;SDS011;32066;49.474;11.106;2023-07-29T07:06:27;5.43;;;2.65;;
46355;SDS011;32066;49.474;11.106;2023-07-29T07:08:56;6.20;;;2.30;;
46355;SDS011;32066;49.474;11.106;2023-07-29T07:11:25;5.80;;;2.60;;
46355;SDS011;32066;49.474;11.106;2023-07-29T07:13:53;5.65;;;2.90;;
46355;SDS011;32066;49.474;11.106;2023-07-29T07:16:22;7.20;;;2.78;;
46355;SDS011;32066;49.474;11.106;2023-07-29T07:18:51;7.28;;;2.65;;
46355;SDS011;32066;49.474;11.106;2023-07-29T07:21:19;7.15;;;3.10;;
46355;SDS011;32066;49.474;11.106;2023-07-29T07:23:51;8.10;;;3.33;;
46355;SDS011;32066;49.474;11.106;2023-07-29T07:26:20;5.28;;;2.67;;
46355;SDS011;32066;49.474;11.106;2023-07-29T07:28:48;6.90;;;3.60;;
46355;SDS011;32066;49.474;11.106;2023-07-29T07:31:17;7.82;;;3.45;;
46355;SDS011;32066;49.474;11.106;2023-07-29T07:33:46;8.27;;;3.47;;
46355;SDS011;32066;49.474;11.106;2023-07-29T07:36:14;6.97;;;3.53;;
46355;SDS011;32066;49.474;11.106;2023-07-29T07:38:43;7.22;;;3.30;;
46355;SDS011;32066;49.474;11.106;2023-07-29T07:41:14;7.60;;;3.63;;
46355;SDS011;32066;49.474;11.106;2023-07-29T07:43:43;8.52;;;3.83;;
46355;SDS011;32066;49.474;11.106;2023-07-29T07:46:12;7.45;;;3.50;;
46355;SDS011;32066;49.474;11.106;2023-07-29T07:48:40;8.98;;;3.78;;
46355;SDS011;32066;49.474;11.106;2023-07-29T07:51:12;11.18;;;4.05;;
46355;SDS011;32066;49.474;11.106;2023-07-29T07:53:41;6.25;;;4.00;;
46355;SDS011;32066;49.474;11.106;2023-07-29T07:56:09;9.07;;;4.00;;
46355;SDS011;32066;49.474;11.106;2023-07-29T07:58:41;8.10;;;4.07;;
46355;SDS011;32066;49.474;11.106;2023-07-29T08:01:09;7.32;;;3.60;;
46355;SDS011;32066;49.474;11.106;2023-07-29T08:03:39;6.15;;;3.63;;
46355;SDS011;32066;49.474;11.106;2023-07-29T08:06:08;6.93;;;4.00;;
46355;SDS011;32066;49.474;11.106;2023-07-29T08:08:36;6.30;;;4.07;;
46355;SDS011;32066;49.474;11.106;2023-07-29T08:11:05;9.82;;;4.32;;
46355;SDS011;32066;49.474;11.106;2023-07-29T08:13:34;8.57;;;4.63;;
46355;SDS011;32066;49.474;11.106;2023-07-29T08:16:05;8.05;;;4.38;;
46355;SDS011;32066;49.474;11.106;2023-07-29T08:18:34;8.85;;;4.15;;
46355;SDS011;32066;49.474;11.106;2023-07-29T08:21:02;9.23;;;4.82;;
46355;SDS011;32066;49.474;11.106;2023-07-29T08:23:31;8.05;;;5.18;;
46355;SDS011;32066;49.474;11.106;2023-07-29T08:26:02;7.63;;;4.47;;
46355;SDS011;32066;49.474;11.106;2023-07-29T08:28:33;10.25;;;5.22;;
46355;SDS011;32066;49.474;11.106;2023-07-29T08:31:06;8.00;;;5.20;;
46355;SDS011;32066;49.474;11.106;2023-07-29T08:33:35;7.43;;;5.05;;
46355;SDS011;32066;49.474;11.106;2023-07-29T08:36:04;7.88;;;5.00;;
46355;SDS011;32066;49.474;11.106;2023-07-29T08:38:33;8.15;;;5.20;;
46355;SDS011;32066;49.474;11.106;2023-07-29T08:41:04;9.85;;;5.70;;
46355;SDS011;32066;49.474;11.106;2023-07-29T08:43:43;9.60;;;5.28;;
46355;SDS011;32066;49.474;11.106;2023-07-29T08:46:21;9.65;;;5.53;;
46355;SDS011;32066;49.474;11.106;2023-07-29T08:48:50;8.85;;;4.88;;
46355;SDS011;32066;49.474;11.106;2023-07-29T08:51:19;9.48;;;5.07;;
46355;SDS011;32066;49.474;11.106;2023-07-29T08:53:49;6.22;;;3.75;;
46355;SDS011;32066;49.474;11.106;2023-07-29T08:56:18;6.25;;;3.92;;
46355;SDS011;32066;49.474;11.106;2023-07-29T08:58:47;5.72;;;3.45;;
46355;SDS011;32066;49.474;11.106;2023-07-29T09:01:16;6.13;;;2.88;;
46355;SDS011;32066;49.474;11.106;2023-07-29T09:03:47;6.43;;;3.10;;
46355;SDS011;32066;49.474;11.106;2023-07-29T09:06:16;5.15;;;3.10;;
46355;SDS011;32066;49.474;11.106;2023-07-29T09:08:53;4.50;;;2.42;;
46355;SDS011;32066;49.474;11.106;2023-07-29T09:11:22;7.90;;;2.60;;
46355;SDS011;32066;49.474;11.106;2023-07-29T09:13:51;5.85;;;2.33;;
46355;SDS011;32066;49.474;11.106;2023-07-29T09:16:20;5.75;;;2.70;;
46355;SDS011;32066;49.474;11.106;2023-07-29T09:18:53;6.57;;;2.75;;
46355;SDS011;32066;49.474;11.106;2023-07-29T09:21:22;5.60;;;3.10;;
46355;SDS011;32066;49.474;11.106;2023-07-29T09:23:54;6.80;;;3.08;;
46355;SDS011;32066;49.474;11.106;2023-07-29T09:26:23;7.30;;;4.05;;
46355;SDS011;32066;49.474;11.106;2023-07-29T09:28:53;6.95;;;3.53;;
46355;SDS011;32066;49.474;11.106;2023-07-29T09:31:23;7.68;;;3.92;;
46355;SDS011;32066;49.474;11.106;2023-07-29T09:33:57;8.80;;;3.88;;
46355;SDS011;32066;49.474;11.106;2023-07-29T09:36:27;7.28;;;4.43;;
46355;SDS011;32066;49.474;11.106;2023-07-29T09:39:01;6.95;;;4.55;;
46355;SDS011;32066;49.474;11.106;2023-07-29T09:41:29;7.70;;;4.45;;
46355;SDS011;32066;49.474;11.106;2023-07-29T09:43:59;7.13;;;3.78;;
46355;SDS011;32066;49.474;11.106;2023-07-29T09:46:31;6.53;;;3.30;;
46355;SDS011;32066;49.474;11.106;2023-07-29T09:49:04;6.93;;;3.75;;
46355;SDS011;32066;49.474;11.106;2023-07-29T09:51:36;6.43;;;3.50;;
46355;SDS011;32066;49.474;11.106;2023-07-29T09:54:06;9.25;;;3.50;;
46355;SDS011;32066;49.474;11.106;2023-07-29T09:56:35;7.35;;;4.22;;
46355;SDS011;32066;49.474;11.106;2023-07-29T09:59:09;6.55;;;3.80;;
46355;SDS011;32066;49.474;11.106;2023-07-29T10:01:38;7.80;;;4.45;;
46355;SDS011;32066;49.474;11.106;2023-07-29T10:04:13;6.53;;;4.15;;
46355;SDS011;32066;49.474;11.106;2023-07-29T10:06:42;8.70;;;4.82;;
46355;SDS011;32066;49.474;11.106;2023-07-29T10:09:11;8.30;;;5.32;;
46355;SDS011;32066;49.474;11.106;2023-07-29T10:11:41;8.02;;;4.93;;
46355;SDS011;32066;49.474;11.106;2023-07-29T10:14:10;8.63;;;4.88;;
46355;SDS011;32066;49.474;11.106;2023-07-29T10:16:39;9.43;;;5.30;;
46355;SDS011;32066;49.474;11.106;2023-07-29T10:19:12;9.13;;;4.90;;
46355;SDS011;32066;49.474;11.106;2023-07-29T10:21:44;9.60;;;5.45;;
46355;SDS011;32066;49.474;11.106;2023-07-29T10:24:18;11.25;;;5.88;;
46355;SDS011;32066;49.474;11.106;2023-07-29T10:26:53;8.60;;;5.32;;
46355;SDS011;32066;49.474;11.106;2023-07-29T10:29:27;8.23;;;5.13;;
46355;SDS011;32066;49.474;11.106;2023-07-29T10:31:58;7.90;;;4.85;;
46355;SDS011;32066;49.474;11.106;2023-07-29T10:34:33;8.10;;;4.85;;
46355;SDS011;32066;49.474;11.106;2023-07-29T10:37:02;9.20;;;5.28;;
46355;SDS011;32066;49.474;11.106;2023-07-29T10:39:37;9.13;;;4.97;;
46355;SDS011;32066;49.474;11.106;2023-07-29T10:42:07;7.35;;;4.75;;
46355;SDS011;32066;49.474;11.106;2023-07-29T10:44:45;7.82;;;4.78;;
46355;SDS011;32066;49.474;11.106;2023-07-29T10:47:15;7.15;;;4.15;;
46355;SDS011;32066;49.474;11.106;2023-07-29T10:49:50;5.95;;;2.72;;
46355;SDS011;32066;49.474;11.106;2023-07-29T10:52:29;6.82;;;3.45;;
46355;SDS011;32066;49.474;11.106;2023-07-29T10:54:59;5.38;;;3.60;;
46355;SDS011;32066;49.474;11.106;2023-07-29T10:57:32;8.52;;;3.42;;
46355;SDS011;32066;49.474;11.106;2023-07-29T11:00:02;5.25;;;3.25;;
46355;SDS011;32066;49.474;11.106;2023-07-29T11:02:36;6.85;;;3.83;;
46355;SDS011;32066;49.474;11.106;2023-07-29T11:05:15;6.47;;;3.47;;
46355;SDS011;32066;49.474;11.106;2023-07-29T11:07:45;8.32;;;3.80;;
46355;SDS011;32066;49.474;11.106;2023-07-29T11:10:15;4.50;;;2.63;;
46355;SDS011;32066;49.474;11.106;2023-07-29T11:12:44;5.93;;;2.90;;
46355;SDS011;32066;49.474;11.106;2023-07-29T11:15:19;5.85;;;2.88;;
46355;SDS011;32066;49.474;11.106;2023-07-29T11:17:50;5.80;;;2.70;;
46355;SDS011;32066;49.474;11.106;2023-07-29T11:20:23;5.00;;;2.80;;
46355;SDS011;32066;49.474;11.106;2023-07-29T11:22:52;5.82;;;2.22;;
46355;SDS011;32066;49.474;11.106;2023-07-29T11:25:22;4.30;;;2.15;;
46355;SDS011;32066;49.474;11.106;2023-07-29T11:27:52;7.93;;;2.67;;
46355;SDS011;32066;49.474;11.106;2023-07-29T11:30:22;5.50;;;2.15;;
46355;SDS011;32066;49.474;11.106;2023-07-29T11:32:53;5.65;;;2.58;;
46355;SDS011;32066;49.474;11.106;2023-07-29T11:35:25;5.97;;;2.20;;
46355;SDS011;32066;49.474;11.106;2023-07-29T11:37:54;6.57;;;2.20;;
46355;SDS011;32066;49.474;11.106;2023-07-29T11:40:23;4.63;;;2.00;;
46355;SDS011;32066;49.474;11.106;2023-07-29T11:42:52;8.02;;;2.55;;
46355;SDS011;32066;49.474;11.106;2023-07-29T11:45:22;6.55;;;2.70;;
46355;SDS011;32066;49.474;11.106;2023-07-29T11:47:51;6.07;;;2.80;;
46355;SDS011;32066;49.474;11.106;2023-07-29T11:50:20;5.28;;;2.30;;
46355;SDS011;32066;49.474;11.106;2023-07-29T11:52:51;5.78;;;2.30;;
46355;SDS011;32066;49.474;11.106;2023-07-29T11:55:20;5.13;;;2.20;;
46355;SDS011;32066;49.474;11.106;2023-07-29T11:57:50;8.18;;;2.30;;
46355;SDS011;32066;49.474;11.106;2023-07-29T12:00:20;4.57;;;2.35;;
46355;SDS011;32066;49.474;11.106;2023-07-29T12:02:49;5.22;;;2.45;;
46355;SDS011;32066;49.474;11.106;2023-07-29T12:05:18;5.53;;;2.13;;
46355;SDS011;32066;49.474;11.106;2023-07-29T12:07:51;8.52;;;2.60;;
46355;SDS011;32066;49.474;11.106;2023-07-29T12:10:20;7.40;;;2.38;;
46355;SDS011;32066;49.474;11.106;2023-07-29T12:12:49;3.95;;;2.05;;
46355;SDS011;32066;49.474;11.106;2023-07-29T12:15:24;4.88;;;2.22;;
46355;SDS011;32066;49.474;11.106;2023-07-29T12:17:54;6.15;;;2.20;;
46355;SDS011;32066;49.474;11.106;2023-07-29T12:20:24;4.82;;;2.17;;
46355;SDS011;32066;49.474;11.106;2023-07-29T12:22:57;8.10;;;2.13;;
46355;SDS011;32066;49.474;11.106;2023-07-29T12:25:28;5.78;;;2.45;;
46355;SDS011;32066;49.474;11.106;2023-07-29T12:28:01;8.77;;;3.05;;
46355;SDS011;32066;49.474;11.106;2023-07-29T12:30:31;4.67;;;1.97;;
46355;SDS011;32066;49.474;11.106;2023-07-29T12:33:00;5.60;;;2.20;;
46355;SDS011;32066;49.474;11.106;2023-07-29T12:35:35;5.18;;;2.08;;
46355;SDS011;32066;49.474;11.106;2023-07-29T12:38:07;4.03;;;2.10;;
46355;SDS011;32066;49.474;11.106;2023-07-29T12:40:37;6.07;;;2.10;;
46355;SDS011;32066;49.474;11.106;2023-07-29T12:43:07;6.50;;;2.40;;
46355;SDS011;32066;49.474;11.106;2023-07-29T12:45:36;3.88;;;1.92;;
46355;SDS011;32066;49.474;11.106;2023-07-29T12:48:05;6.78;;;2.50;;
46355;SDS011;32066;49.474;11.106;2023-07-29T12:50:33;4.00;;;2.28;;
46355;SDS011;32066;49.474;11.106;2023-07-29T12:53:02;6.60;;;2.65;;
46355;SDS011;32066;49.474;11.106;2023-07-29T12:55:35;6.32;;;2.33;;
46355;SDS011;32066;49.474;11.106;2023-07-29T12:58:04;6.25;;;2.13;;
46355;SDS011;32066;49.474;11.106;2023-07-29T13:00:32;4.53;;;1.80;;
46355;SDS011;32066;49.474;11.106;2023-07-29T13:03:01;4.97;;;1.95;;
46355;SDS011;32066;49.474;11.106;2023-07-29T13:05:31;5.15;;;1.98;;
46355;SDS011;32066;49.474;11.106;2023-07-29T13:07:59;4.68;;;2.17;;
46355;SDS011;32066;49.474;11.106;2023-07-29T13:10:28;4.13;;;2.00;;
46355;SDS011;32066;49.474;11.106;2023-07-29T13:12:59;3.53;;;1.75;;
46355;SDS011;32066;49.474;11.106;2023-07-29T13:15:28;6.38;;;2.08;;
46355;SDS011;32066;49.474;11.106;2023-07-29T13:17:56;4.47;;;1.80;;
46355;SDS011;32066;49.474;11.106;2023-07-29T13:20:25;5.97;;;2.08;;
46355;SDS011;32066;49.474;11.106;2023-07-29T13:22:54;5.05;;;2.22;;
46355;SDS011;32066;49.474;11.106;2023-07-29T13:25:23;5.05;;;1.98;;
46355;SDS011;32066;49.474;11.106;2023-07-29T13:27:51;4.53;;;2.28;;
46355;SDS011;32066;49.474;11.106;2023-07-29T13:30:23;4.25;;;1.70;;
46355;SDS011;32066;49.474;11.106;2023-07-29T13:32:51;4.95;;;2.05;;
46355;SDS011;32066;49.474;11.106;2023-07-29T13:35:20;4.07;;;2.00;;
46355;SDS011;32066;49.474;11.106;2023-07-29T13:37:49;4.70;;;1.70;;
46355;SDS011;32066;49.474;11.106;2023-07-29T13:40:17;5.35;;;1.90;;
46355;SDS011;32066;49.474;11.106;2023-07-29T13:42:46;3.15;;;1.52;;
46355;SDS011;32066;49.474;11.106;2023-07-29T13:45:14;4.10;;;1.70;;
46355;SDS011;32066;49.474;11.106;2023-07-29T13:47:46;5.35;;;1.70;;
46355;SDS011;32066;49.474;11.106;2023-07-29T13:50:15;3.75;;;1.48;;
46355;SDS011;32066;49.474;11.106;2023-07-29T13:52:44;4.85;;;1.60;;
46355;SDS011;32066;49.474;11.106;2023-07-29T13:55:13;4.40;;;1.60;;
46355;SDS011;32066;49.474;11.106;2023-07-29T13:57:41;4.90;;;1.60;;
46355;SDS011;32066;49.474;11.106;2023-07-29T14:00:10;5.38;;;1.60;;
46355;SDS011;32066;49.474;11.106;2023-07-29T14:02:39;7.15;;;1.80;;
46355;SDS011;32066;49.474;11.106;2023-07-29T14:05:11;6.20;;;1.98;;
46355;SDS011;32066;49.474;11.106;2023-07-29T14:07:40;4.03;;;1.88;;
46355;SDS011;32066;49.474;11.106;2023-07-29T14:10:09;4.85;;;1.80;;
46355;SDS011;32066;49.474;11.106;2023-07-29T14:12:38;3.50;;;1.52;;
46355;SDS011;32066;49.474;11.106;2023-07-29T14:15:07;4.10;;;1.80;;
46355;SDS011;32066;49.474;11.106;2023-07-29T14:17:36;4.80;;;1.48;;
46355;SDS011;32066;49.474;11.106;2023-07-29T14:20:05;4.35;;;2.08;;
46355;SDS011;32066;49.474;11.106;2023-07-29T14:22:38;3.28;;;1.40;;
46355;SDS011;32066;49.474;11.106;2023-07-29T14:25:07;4.15;;;1.50;;
46355;SDS011;32066;49.474;11.106;2023-07-29T14:27:36;3.38;;;1.40;;
46355;SDS011;32066;49.474;11.106;2023-07-29T14:30:05;3.22;;;1.50;;
46355;SDS011;32066;49.474;11.106;2023-07-29T14:32:34;5.45;;;1.50;;
46355;SDS011;32066;49.474;11.106;2023-07-29T14:35:03;4.82;;;1.42;;
46355;SDS011;32066;49.474;11.106;2023-07-29T14:37:33;3.08;;;1.30;;
46355;SDS011;32066;49.474;11.106;2023-07-29T14:40:06;3.10;;;1.17;;
46355;SDS011;32066;49.474;11.106;2023-07-29T14:42:35;3.45;;;1.40;;
46355;SDS011;32066;49.474;11.106;2023-07-29T14:45:04;3.70;;;1.30;;
46355;SDS011;32066;49.474;11.106;2023-07-29T14:47:34;3.50;;;1.27;;
46355;SDS011;32066;49.474;11.106;2023-07-29T14:50:02;4.28;;;1.17;;